Time;durP1;ratioP1;P1;durP2;ratioP2;P2;SDS_P1;SDS_P2;PMS_P1;PMS_P2;Temp;Humidity;BMP_temperature;BMP_pressure;BME280_temperature;BME280_humidity;BME280_pressure;Samples;Min_cycle;Max_cycle;Signal;HPM_P1;HPM_P2
2021/06/01 00:01:29;;;;;;;11.57;5.25;;;21.40;52.70;;;;;;5075391;28;20115;-70
2021/06/01 00:03:54;;;;;;;12.52;5.03;;;21.30;53.20;;;;;;5075137;28;20031;-70
2021/06/01 00:06:20;;;;;;;8.82;4.95;;;21.30;53.60;;;;;;5074974;28;20020;-71
2021/06/01 00:08:46;;;;;;;9.10;5.18;;;21.40;53.20;;;;;;5075188;28;20029;-71
2021/06/01 00:11:13;;;;;;;11.85;5.40;;;21.40;53.50;;;;;;5075122;28;20031;-70
2021/06/01 00:13:40;;;;;;;9.85;5.25;;;21.50;53.70;;;;;;5075439;28;20475;-74
2021/06/01 00:16:07;;;;;;;12.52;5.40;;;21.50;54.10;;;;;;5074921;28;20025;-73
2021/06/01 00:18:33;;;;;;;10.40;5.05;;;21.30;54.20;;;;;;5075041;28;20106;-72
2021/06/01 00:20:59;;;;;;;12.40;5.05;;;21.30;54.30;;;;;;5059258;28;20036;-74
2021/06/01 00:23:26;;;;;;;9.70;5.32;;;21.20;54.20;;;;;;5054877;28;20378;-72
2021/06/01 00:25:51;;;;;;;12.38;5.05;;;21.10;54.30;;;;;;5054713;28;20025;-72
2021/06/01 00:28:17;;;;;;;9.23;5.07;;;21.10;54.70;;;;;;5054805;28;20373;-72
2021/06/01 00:30:43;;;;;;;10.07;5.18;;;21.30;54.50;;;;;;5064602;28;20032;-73
2021/06/01 00:33:10;;;;;;;12.95;5.07;;;21.30;54.40;;;;;;5074903;28;20031;-73
2021/06/01 00:35:36;;;;;;;13.88;4.93;;;21.20;54.50;;;;;;5074855;28;20025;-71
2021/06/01 00:38:03;;;;;;;9.05;4.60;;;21.20;54.50;;;;;;5066665;28;20028;-71
2021/06/01 00:40:29;;;;;;;9.00;4.57;;;21.30;54.40;;;;;;5059651;28;20029;-72
2021/06/01 00:42:55;;;;;;;11.52;4.20;;;21.30;54.20;;;;;;5074355;28;20043;-73
2021/06/01 00:45:23;;;;;;;9.25;4.30;;;21.10;54.40;;;;;;5074463;28;20052;-73
2021/06/01 00:47:49;;;;;;;7.22;3.63;;;21.00;54.40;;;;;;5074483;28;20020;-73
2021/06/01 00:50:16;;;;;;;10.57;3.72;;;20.80;53.90;;;;;;5073764;28;20025;-70
2021/06/01 00:52:42;;;;;;;9.05;3.78;;;20.90;53.90;;;;;;5036619;28;20462;-73
2021/06/01 00:55:08;;;;;;;9.70;4.05;;;21.00;53.60;;;;;;5054841;28;20420;-74
2021/06/01 00:57:35;;;;;;;7.78;3.83;;;20.90;53.40;;;;;;5056225;28;20025;-71
2021/06/01 01:00:02;;;;;;;8.77;3.58;;;20.90;53.40;;;;;;5073617;28;20029;-72
2021/06/01 01:02:29;;;;;;;9.05;4.10;;;20.90;53.20;;;;;;5050401;28;20049;-73
2021/06/01 01:04:55;;;;;;;6.80;3.58;;;21.00;52.70;;;;;;5054022;28;20033;-74
2021/06/01 01:07:38;;;;;;;8.77;3.45;;;20.90;52.60;;;;;;5054093;28;20095;-72
2021/06/01 01:10:06;;;;;;;9.95;3.90;;;20.90;52.90;;;;;;5036121;28;20463;-72
2021/06/01 01:12:58;;;;;;;8.23;3.95;;;20.80;52.60;;;;;;5054271;28;20028;-73
2021/06/01 01:15:25;;;;;;;10.68;3.97;;;20.90;52.10;;;;;;5053864;28;20029;-73
2021/06/01 01:17:54;;;;;;;6.50;3.65;;;20.80;52.90;;;;;;5053814;28;20021;-73
2021/06/01 01:20:29;;;;;;;6.90;3.97;;;20.70;53.00;;;;;;5053507;28;20052;-74
2021/06/01 01:22:56;;;;;;;6.47;3.60;;;20.80;53.20;;;;;;5036809;28;20088;-73
2021/06/01 01:26:02;;;;;;;9.18;4.00;;;20.70;53.20;;;;;;5053938;28;20040;-72
2021/06/01 01:28:52;;;;;;;7.90;3.90;;;20.60;52.60;;;;;;4973006;28;20133;-73
2021/06/01 01:31:38;;;;;;;8.52;3.47;;;20.50;52.50;;;;;;5050262;28;20060;-73
2021/06/01 01:34:05;;;;;;;6.68;3.13;;;20.60;52.80;;;;;;5053746;28;20033;-74
2021/06/01 01:36:34;;;;;;;6.03;3.03;;;20.60;51.70;;;;;;5035525;28;20050;-72
2021/06/01 01:39:01;;;;;;;8.75;3.15;;;20.50;51.20;;;;;;5054467;28;20107;-72
2021/06/01 01:41:27;;;;;;;8.32;3.00;;;20.50;51.20;;;;;;5053435;28;20029;-71
2021/06/01 01:43:57;;;;;;;6.35;3.35;;;20.60;51.10;;;;;;5071207;28;20475;-74
2021/06/01 01:46:48;;;;;;;5.93;2.90;;;20.50;51.10;;;;;;5073372;28;20020;-73
2021/06/01 01:49:20;;;;;;;6.40;3.40;;;20.40;51.10;;;;;;5073433;28;20329;-73
2021/06/01 01:51:56;;;;;;;8.23;3.50;;;20.20;51.20;;;;;;5055097;28;20021;-73
2021/06/01 01:54:24;;;;;;;7.63;3.13;;;20.20;50.60;;;;;;5053774;28;20365;-73
2021/06/01 01:57:12;;;;;;;5.07;2.58;;;20.30;51.00;;;;;;5070794;28;20034;-72
2021/06/01 01:59:38;;;;;;;6.22;2.92;;;20.20;50.20;;;;;;5073349;28;20106;-73
2021/06/01 02:02:10;;;;;;;6.68;3.03;;;20.00;50.10;;;;;;5073358;28;20032;-72
2021/06/01 02:04:36;;;;;;;5.45;2.70;;;20.00;50.00;;;;;;5054534;28;20055;-71
2021/06/01 02:07:03;;;;;;;6.20;3.40;;;19.90;49.80;;;;;;5053075;28;20033;-69
2021/06/01 02:09:29;;;;;;;7.75;2.83;;;19.90;49.50;;;;;;5053186;28;20048;-71
2021/06/01 02:11:55;;;;;;;5.93;3.13;;;19.90;49.50;;;;;;5068335;28;20067;-73
2021/06/01 02:14:21;;;;;;;5.03;2.90;;;19.90;49.60;;;;;;5059339;28;20028;-73
2021/06/01 02:16:48;;;;;;;4.65;2.97;;;20.00;49.90;;;;;;5052526;28;20021;-72
2021/06/01 02:19:16;;;;;;;8.88;2.78;;;19.80;49.50;;;;;;5052928;28;20180;-71
2021/06/01 02:24:49;;;;;;;6.15;2.70;;;19.50;49.70;;;;;;5062919;28;20040;-71
2021/06/01 02:27:21;;;;;;;4.80;2.60;;;19.30;49.70;;;;;;5051628;28;20115;-71
2021/06/01 02:30:02;;;;;;;7.25;3.03;;;19.30;49.90;;;;;;5072996;28;20036;-73
2021/06/01 02:32:35;;;;;;;7.35;3.03;;;19.50;49.80;;;;;;5073104;28;20469;-71
2021/06/01 02:35:07;;;;;;;;;;;19.50;49.80;;;;;;5059710;28;20063;-73
2021/06/01 02:37:33;;;;;;;4.35;2.67;;;19.70;49.10;;;;;;5053175;28;19937;-72
2021/06/01 02:40:01;;;;;;;6.07;3.05;;;19.80;49.60;;;;;;5048127;28;20037;-71
2021/06/01 02:42:27;;;;;;;5.55;2.53;;;19.80;49.30;;;;;;5073334;28;20052;-72
2021/06/01 02:44:53;;;;;;;5.57;2.83;;;19.90;49.00;;;;;;5064011;28;20461;-74
2021/06/01 02:47:19;;;;;;;5.60;2.72;;;19.90;49.10;;;;;;5037250;28;20025;-73
2021/06/01 02:49:45;;;;;;;6.75;2.70;;;20.00;49.00;;;;;;5036550;28;20029;-71
2021/06/01 02:52:12;;;;;;;5.72;2.60;;;20.00;48.90;;;;;;5053719;28;20025;-71
2021/06/01 02:54:38;;;;;;;6.13;3.15;;;19.80;49.10;;;;;;5057064;28;20025;-71
2021/06/01 02:57:04;;;;;;;6.90;2.40;;;19.70;49.10;;;;;;5072665;28;20539;-71
2021/06/01 02:59:30;;;;;;;6.53;3.35;;;19.50;49.40;;;;;;5072496;28;20020;-71
2021/06/01 03:01:57;;;;;;;5.43;3.30;;;19.40;49.60;;;;;;5072881;28;20033;-73
2021/06/01 03:04:22;;;;;;;7.13;3.65;;;19.50;49.90;;;;;;5054742;28;20037;-72
2021/06/01 03:06:48;;;;;;;6.97;3.00;;;19.40;49.70;;;;;;5052944;28;20538;-73
2021/06/01 03:09:14;;;;;;;6.15;3.30;;;19.50;49.70;;;;;;5052624;28;20025;-73
2021/06/01 03:11:42;;;;;;;7.70;3.42;;;19.50;49.80;;;;;;5052570;28;20029;-73
2021/06/01 03:14:08;;;;;;;7.63;3.30;;;19.50;49.70;;;;;;5052809;28;20025;-76
2021/06/01 03:16:34;;;;;;;5.75;3.30;;;19.50;49.60;;;;;;5066657;28;20066;-73
2021/06/01 03:18:59;;;;;;;7.40;3.17;;;19.60;49.40;;;;;;5072518;28;20029;-74
2021/06/01 03:21:25;;;;;;;6.18;2.80;;;19.50;49.30;;;;;;5072563;28;20495;-75
2021/06/01 03:23:52;;;;;;;9.05;2.80;;;19.60;49.30;;;;;;5072489;28;20436;-73
2021/06/01 03:26:18;;;;;;;8.90;3.10;;;19.70;49.10;;;;;;5072186;28;20025;-71
2021/06/01 03:28:44;;;;;;;5.80;3.15;;;19.70;49.00;;;;;;5073720;28;20035;-72
2021/06/01 03:31:10;;;;;;;7.05;3.03;;;19.80;49.00;;;;;;5058196;28;20024;-74
2021/06/01 03:33:36;;;;;;;4.70;3.05;;;19.70;48.70;;;;;;5068599;28;20078;-71
2021/06/01 03:36:03;;;;;;;5.22;2.83;;;19.60;48.70;;;;;;5060366;28;20024;-73
2021/06/01 03:38:31;;;;;;;9.10;2.90;;;19.50;48.90;;;;;;5075734;28;20029;-73
2021/06/01 03:40:57;;;;;;;9.00;3.08;;;19.40;49.20;;;;;;5075643;28;20028;-73
2021/06/01 03:43:23;;;;;;;6.28;3.28;;;19.30;49.30;;;;;;5076079;28;20035;-73
2021/06/01 03:45:48;;;;;;;7.55;3.08;;;19.40;49.40;;;;;;5075515;28;20430;-71
2021/06/01 03:48:14;;;;;;;5.55;2.63;;;19.30;49.30;;;;;;5056047;28;20104;-71
2021/06/01 03:50:40;;;;;;;4.40;2.78;;;19.20;49.10;;;;;;5066721;28;20029;-72
2021/06/01 03:53:05;;;;;;;7.28;3.08;;;19.20;49.50;;;;;;5074751;28;20055;-70
2021/06/01 03:55:31;;;;;;;7.63;2.92;;;19.30;49.50;;;;;;5059007;28;20032;-72
2021/06/01 03:57:57;;;;;;;9.27;2.78;;;19.20;49.40;;;;;;5070436;28;20025;-71
2021/06/01 04:00:28;;;;;;;5.18;2.70;;;19.20;49.20;;;;;;5074382;28;20035;-72
2021/06/01 04:02:54;;;;;;;6.30;2.72;;;19.10;49.30;;;;;;5037724;28;20343;-72
2021/06/01 04:05:20;;;;;;;7.38;2.85;;;19.20;49.20;;;;;;5055349;28;20466;-71
2021/06/01 04:07:47;;;;;;;11.13;2.72;;;19.20;49.20;;;;;;5065650;28;20027;-75
2021/06/01 04:10:15;;;;;;;5.70;3.10;;;19.20;49.50;;;;;;5075637;28;20085;-73
2021/06/01 04:12:41;;;;;;;8.45;2.83;;;19.20;49.10;;;;;;5075454;28;20404;-73
2021/06/01 04:15:07;;;;;;;5.88;2.90;;;19.10;49.10;;;;;;5075226;28;20021;-73
2021/06/01 04:17:33;;;;;;;6.43;2.85;;;18.80;48.90;;;;;;5050760;28;20040;-70
2021/06/01 04:19:59;;;;;;;6.15;2.85;;;18.90;49.50;;;;;;5055397;28;20044;-74
2021/06/01 04:22:25;;;;;;;6.40;3.15;;;18.90;49.30;;;;;;5055162;28;20024;-73
2021/06/01 04:24:51;;;;;;;7.05;3.08;;;18.90;49.20;;;;;;5054856;28;20107;-73
2021/06/01 04:27:17;;;;;;;5.22;2.70;;;18.90;49.40;;;;;;5055461;28;20025;-73
2021/06/01 04:29:42;;;;;;;6.22;2.80;;;18.90;49.20;;;;;;5074713;28;20033;-74
2021/06/01 04:32:08;;;;;;;7.43;2.78;;;19.00;49.10;;;;;;5075196;28;20024;-73
2021/06/01 04:34:34;;;;;;;5.60;2.85;;;18.90;49.00;;;;;;5063226;28;20425;-72
2021/06/01 04:37:00;;;;;;;9.90;3.10;;;19.00;49.00;;;;;;5054745;28;20060;-73
2021/06/01 04:39:26;;;;;;;5.13;2.70;;;18.90;49.00;;;;;;5069913;28;20051;-74
2021/06/01 04:41:52;;;;;;;4.80;2.67;;;19.00;49.10;;;;;;5074656;28;20035;-73
2021/06/01 04:44:17;;;;;;;4.35;2.63;;;18.90;48.60;;;;;;5074712;28;20067;-75
2021/06/01 04:46:43;;;;;;;5.57;2.50;;;19.00;48.70;;;;;;5074572;28;20450;-74
2021/06/01 04:49:09;;;;;;;5.53;2.67;;;19.00;48.60;;;;;;5063669;28;20504;-73
2021/06/01 04:51:34;;;;;;;4.50;2.88;;;18.90;48.50;;;;;;5054641;28;20024;-73
2021/06/01 04:54:00;;;;;;;5.05;2.10;;;18.90;48.50;;;;;;5054581;28;20029;-72
2021/06/01 04:56:27;;;;;;;4.55;2.70;;;18.80;48.70;;;;;;5054459;28;20017;-71
2021/06/01 04:58:54;;;;;;;5.28;2.80;;;18.80;48.70;;;;;;5059805;28;20162;-71
2021/06/01 05:01:20;;;;;;;6.35;3.00;;;18.80;48.90;;;;;;5065026;28;20020;-71
2021/06/01 05:03:46;;;;;;;7.68;2.90;;;18.90;48.60;;;;;;5054394;28;20047;-72
2021/06/01 05:06:12;;;;;;;4.07;2.53;;;19.00;48.40;;;;;;5054355;28;20021;-71
2021/06/01 05:08:37;;;;;;;6.57;2.60;;;19.10;48.30;;;;;;5054952;28;20035;-72
2021/06/01 05:11:04;;;;;;;7.65;2.90;;;19.20;48.00;;;;;;5056204;28;20031;-70
2021/06/01 05:13:30;;;;;;;7.40;2.85;;;19.30;47.80;;;;;;5056193;28;20029;-72
2021/06/01 05:15:56;;;;;;;6.75;2.95;;;19.30;47.90;;;;;;5074095;28;20427;-71
2021/06/01 05:18:22;;;;;;;5.05;2.60;;;19.40;47.60;;;;;;5074367;28;20043;-72
2021/06/01 05:20:48;;;;;;;5.30;3.08;;;19.50;47.30;;;;;;5057569;28;20052;-74
2021/06/01 05:23:15;;;;;;;5.80;3.03;;;19.70;46.90;;;;;;5036033;28;20037;-70
2021/06/01 05:25:44;;;;;;;5.70;3.03;;;19.90;46.50;;;;;;5053935;28;20394;-71
2021/06/01 05:28:10;;;;;;;6.35;3.50;;;20.20;46.40;;;;;;5053670;28;20021;-71
2021/06/01 05:35:29;;;;;;;5.70;3.03;;;21.30;44.80;;;;;;5073951;28;20503;-70
2021/06/01 05:37:54;;;;;;;7.82;3.20;;;21.40;44.40;;;;;;5073658;28;20107;-72
2021/06/01 05:40:20;;;;;;;6.40;2.90;;;21.70;43.80;;;;;;5061162;28;20422;-70
2021/06/01 05:42:46;;;;;;;6.40;2.58;;;21.90;43.20;;;;;;5053440;28;20269;-71
2021/06/01 05:45:13;;;;;;;5.88;3.25;;;21.90;43.20;;;;;;5053393;28;20079;-69
2021/06/01 05:47:38;;;;;;;5.40;3.08;;;22.10;42.80;;;;;;5053463;28;20095;-71
2021/06/01 05:50:05;;;;;;;5.00;2.60;;;22.20;42.80;;;;;;5044813;28;20107;-75
2021/06/01 05:52:35;;;;;;;8.73;3.22;;;22.40;42.00;;;;;;5055649;28;20029;-76
2021/06/01 05:55:03;;;;;;;5.13;2.65;;;22.70;42.50;;;;;;5073640;28;20059;-73
2021/06/01 05:57:29;;;;;;;5.35;2.63;;;23.00;40.60;;;;;;5073722;28;20028;-76
2021/06/01 05:59:55;;;;;;;5.70;2.60;;;23.30;41.60;;;;;;5068712;28;20029;-75
2021/06/01 06:02:20;;;;;;;8.10;3.13;;;23.40;41.50;;;;;;5053613;28;20029;-72
2021/06/01 06:04:46;;;;;;;7.57;3.00;;;23.60;41.50;;;;;;5053307;28;20037;-74
2021/06/01 06:07:12;;;;;;;8.80;3.08;;;23.70;41.20;;;;;;5053054;28;20025;-77
2021/06/01 06:09:38;;;;;;;5.72;3.00;;;23.40;41.30;;;;;;5039037;28;20041;-73
2021/06/01 06:12:04;;;;;;;7.32;3.20;;;23.30;41.70;;;;;;5082493;28;20408;-70
2021/06/01 06:14:29;;;;;;;7.68;3.08;;;23.40;41.00;;;;;;5080472;28;20025;-71
2021/06/01 06:16:59;;;;;;;11.35;3.08;;;23.40;41.60;;;;;;5085383;28;20028;-75
2021/06/01 06:19:25;;;;;;;10.75;3.00;;;23.60;41.60;;;;;;5063009;28;20045;-75
2021/06/01 06:21:51;;;;;;;11.65;2.97;;;23.90;41.30;;;;;;5057408;28;20355;-73
2021/06/01 06:24:16;;;;;;;7.25;3.10;;;24.00;40.70;;;;;;5052637;28;20441;-76
2021/06/01 06:26:45;;;;;;;8.02;2.58;;;24.30;40.90;;;;;;5035092;28;20017;-76
2021/06/01 06:29:14;;;;;;;8.90;2.78;;;24.50;39.30;;;;;;5053150;28;20021;-72
2021/06/01 06:31:39;;;;;;;11.13;3.60;;;24.70;40.30;;;;;;5035293;28;20036;-78
2021/06/01 06:34:05;;;;;;;11.57;3.40;;;24.90;40.20;;;;;;5053108;28;20075;-78
2021/06/01 06:36:31;;;;;;;10.23;3.30;;;24.80;40.40;;;;;;5035034;28;20108;-75
2021/06/01 06:38:56;;;;;;;8.13;3.22;;;25.10;40.30;;;;;;5060673;28;20358;-76
2021/06/01 06:41:22;;;;;;;7.30;2.90;;;25.20;39.90;;;;;;5067642;28;20025;-75
2021/06/01 06:43:53;;;;;;;12.15;2.83;;;25.30;39.50;;;;;;5074167;28;20025;-72
2021/06/01 06:46:29;;;;;;;7.05;2.60;;;25.40;39.10;;;;;;5068252;28;20025;-75
2021/06/01 06:48:56;;;;;;;12.13;3.10;;;25.50;39.50;;;;;;5054374;28;20092;-75
2021/06/01 06:51:23;;;;;;;8.80;2.75;;;25.60;39.60;;;;;;5054969;28;20496;-75
2021/06/01 06:53:56;;;;;;;9.48;3.05;;;25.70;39.30;;;;;;5050481;28;20037;-77
2021/06/01 06:56:23;;;;;;;;;;;25.70;38.60;;;;;;5039340;28;20024;-75
2021/06/01 06:58:51;;;;;;;5.72;2.53;;;25.80;38.80;;;;;;5072461;28;19912;-77
2021/06/01 07:01:18;;;;;;;12.40;3.20;;;25.90;38.20;;;;;;5072912;28;20029;-73
2021/06/01 07:03:43;;;;;;;12.95;3.33;;;25.90;38.90;;;;;;5074460;28;20038;-74
2021/06/01 07:06:09;;;;;;;11.07;2.63;;;25.80;38.80;;;;;;5076198;28;20016;-77
2021/06/01 07:08:40;;;;;;;5.68;2.55;;;25.70;38.70;;;;;;5076697;28;20028;-77
2021/06/01 07:11:06;;;;;;;8.60;3.20;;;25.60;37.70;;;;;;5059739;28;20071;-78
2021/06/01 07:13:48;;;;;;;7.07;2.72;;;25.30;38.60;;;;;;5055655;28;20116;-76
2021/06/01 07:16:15;;;;;;;7.47;2.58;;;25.10;38.90;;;;;;5076607;28;20036;-75
2021/06/01 07:18:42;;;;;;;8.85;2.60;;;25.00;38.90;;;;;;5076582;28;20032;-79
2021/06/01 07:21:09;;;;;;;8.55;2.75;;;25.20;38.60;;;;;;5076199;28;20086;-77
2021/06/01 07:23:37;;;;;;;10.90;3.72;;;25.40;38.70;;;;;;5058513;28;20037;-76
2021/06/01 07:26:03;;;;;;;9.13;3.10;;;25.80;38.50;;;;;;5023397;28;20021;-79
2021/06/01 07:28:29;;;;;;;9.45;3.03;;;26.10;37.90;;;;;;5055947;28;20021;-77
2021/06/01 07:30:55;;;;;;;9.43;3.13;;;26.00;37.60;;;;;;5055664;28;20070;-77
2021/06/01 07:33:21;;;;;;;9.25;2.90;;;26.10;37.90;;;;;;5056978;28;20037;-78
2021/06/01 07:35:47;;;;;;;8.90;2.80;;;26.10;38.10;;;;;;5049440;28;20036;-78
2021/06/01 07:38:13;;;;;;;9.75;3.22;;;26.10;38.10;;;;;;5066506;28;20037;-78
2021/06/01 07:40:40;;;;;;;9.57;3.00;;;26.20;38.10;;;;;;5056130;28;20525;-80
2021/06/01 07:43:06;;;;;;;6.93;2.80;;;26.10;37.80;;;;;;5055639;28;20504;-79
2021/06/01 07:45:33;;;;;;;6.22;2.67;;;26.20;37.80;;;;;;5055903;28;20041;-77
2021/06/01 07:47:59;;;;;;;9.35;3.25;;;26.20;38.10;;;;;;5038239;28;20025;-78
2021/06/01 07:50:25;;;;;;;10.63;3.40;;;26.20;37.60;;;;;;5042773;28;20097;-75
2021/06/01 07:52:51;;;;;;;9.38;3.22;;;26.30;37.80;;;;;;5071535;28;20021;-77
2021/06/01 07:55:17;;;;;;;10.52;2.85;;;26.40;37.70;;;;;;5038239;28;20090;-69
2021/06/01 07:57:43;;;;;;;10.43;3.00;;;26.40;37.50;;;;;;5058349;28;20021;-69
2021/06/01 08:00:13;;;;;;;9.30;3.33;;;26.30;37.10;;;;;;5061060;28;20123;-69
2021/06/01 08:02:41;;;;;;;7.85;3.33;;;26.10;36.30;;;;;;5054189;28;20385;-75
2021/06/01 08:05:09;;;;;;;12.65;3.28;;;26.00;37.30;;;;;;5074826;28;20563;-70
2021/06/01 08:07:34;;;;;;;7.53;3.15;;;25.90;37.10;;;;;;5057127;28;20060;-73
2021/06/01 08:10:05;;;;;;;11.73;3.90;;;25.90;37.40;;;;;;5075002;28;20056;-70
2021/06/01 08:12:33;;;;;;;9.32;2.63;;;25.80;37.30;;;;;;5054502;28;20477;-69
2021/06/01 08:14:59;;;;;;;7.30;2.83;;;25.70;37.40;;;;;;5066899;28;20116;-72
2021/06/01 08:17:25;;;;;;;5.25;2.45;;;25.80;37.50;;;;;;5064974;28;20060;-72
2021/06/01 08:19:53;;;;;;;5.70;2.47;;;25.80;37.10;;;;;;5053468;28;20075;-69
2021/06/01 08:22:31;;;;;;;8.05;2.20;;;25.60;37.00;;;;;;5053778;28;20111;-72
2021/06/01 08:24:57;;;;;;;6.68;2.10;;;25.40;36.80;;;;;;5037716;28;20045;-70
2021/06/01 08:27:23;;;;;;;6.15;2.55;;;25.30;36.70;;;;;;5034239;28;20025;-69
2021/06/01 08:29:49;;;;;;;9.90;2.90;;;25.30;36.40;;;;;;5033938;28;20052;-69
2021/06/01 08:32:15;;;;;;;8.18;2.60;;;25.30;36.20;;;;;;5034491;28;20461;-70
2021/06/01 08:34:42;;;;;;;4.97;2.60;;;25.20;36.20;;;;;;5045759;28;20378;-69
2021/06/01 08:37:08;;;;;;;4.20;2.10;;;25.30;34.80;;;;;;5054287;28;20029;-70
2021/06/01 08:39:34;;;;;;;8.73;2.40;;;25.40;35.50;;;;;;5054203;28;20032;-70
2021/06/01 08:41:59;;;;;;;5.40;1.95;;;25.50;35.20;;;;;;5054329;28;20052;-75
2021/06/01 08:44:27;;;;;;;4.78;2.20;;;25.50;35.10;;;;;;5048407;28;20492;-75
2021/06/01 08:46:55;;;;;;;7.82;2.05;;;25.50;35.20;;;;;;5034285;28;20104;-73
2021/06/01 08:49:21;;;;;;;7.93;2.40;;;25.70;35.30;;;;;;5034103;28;20041;-75
2021/06/01 08:51:48;;;;;;;9.02;2.90;;;25.80;35.20;;;;;;5038205;28;20097;-73
2021/06/01 08:54:15;;;;;;;11.35;3.00;;;25.90;35.10;;;;;;5050278;28;20087;-76
2021/06/01 08:56:41;;;;;;;5.50;2.30;;;25.90;35.00;;;;;;5032778;28;20026;-74
2021/06/01 08:59:09;;;;;;;6.68;2.08;;;25.90;34.90;;;;;;5034242;28;20029;-72
2021/06/01 09:01:35;;;;;;;8.55;2.30;;;25.80;34.60;;;;;;5034401;28;20105;-76
2021/06/01 09:04:06;;;;;;;5.03;2.03;;;25.90;33.70;;;;;;5034468;28;20104;-75
2021/06/01 09:06:43;;;;;;;3.88;2.03;;;25.90;33.30;;;;;;5053971;28;20059;-77
2021/06/01 09:12:51;;;;;;;7.05;2.00;;;25.80;33.30;;;;;;5012542;28;20599;-78
2021/06/01 09:15:20;;;;;;;4.43;2.05;;;25.80;32.90;;;;;;5042169;28;20056;-71
2021/06/01 09:23:00;;;;;;;7.85;2.35;;;26.00;32.20;;;;;;5053615;28;20029;-75
2021/06/01 09:28:14;;;;;;;7.13;1.90;;;26.10;32.20;;;;;;5074008;28;20086;-76
2021/06/01 09:31:01;;;;;;;5.72;1.80;;;26.20;31.80;;;;;;5055856;28;20060;-75
2021/06/01 09:33:32;;;;;;;5.20;1.80;;;26.20;31.80;;;;;;5091600;28;20078;-73
2021/06/01 09:36:05;;;;;;;4.80;2.10;;;26.30;31.20;;;;;;5072521;28;20471;-73
2021/06/01 09:38:50;;;;;;;5.18;2.13;;;26.30;30.80;;;;;;5053329;28;20066;-72
2021/06/01 09:41:28;;;;;;;7.50;2.25;;;26.50;30.80;;;;;;5053277;28;20033;-73
2021/06/01 09:43:59;;;;;;;7.72;2.45;;;26.50;31.50;;;;;;5065322;28;20028;-75
2021/06/01 09:46:45;;;;;;;7.00;2.03;;;26.50;32.30;;;;;;5042936;28;20037;-74
2021/06/01 09:49:13;;;;;;;7.70;2.30;;;26.50;32.20;;;;;;5053098;28;20037;-71
2021/06/01 09:51:42;;;;;;;6.03;1.98;;;26.30;32.60;;;;;;5053267;28;20090;-71
2021/06/01 09:54:50;;;;;;;5.25;2.30;;;26.30;32.80;;;;;;5053241;28;20037;-71
2021/06/01 09:57:23;;;;;;;8.75;2.22;;;26.20;32.60;;;;;;5050165;28;20118;-75
2021/06/01 10:00:18;;;;;;;5.43;1.95;;;26.10;32.30;;;;;;5072958;28;20115;-70
2021/06/01 10:02:54;;;;;;;7.78;2.20;;;26.20;32.20;;;;;;5073051;28;20047;-71
2021/06/01 10:05:26;;;;;;;7.80;2.42;;;26.30;33.00;;;;;;5072934;28;20091;-74
2021/06/01 10:07:53;;;;;;;7.78;2.72;;;26.40;32.90;;;;;;5052655;28;20036;-72
2021/06/01 10:10:31;;;;;;;3.50;2.00;;;26.50;32.20;;;;;;5052662;28;20025;-73
2021/06/01 10:12:59;;;;;;;6.18;2.30;;;26.40;31.20;;;;;;5052599;28;20024;-73
2021/06/01 10:15:27;;;;;;;8.52;2.33;;;26.30;31.00;;;;;;5052657;28;20029;-72
2021/06/01 10:17:54;;;;;;;6.97;2.08;;;26.30;31.10;;;;;;5069364;28;20056;-75
2021/06/01 10:20:23;;;;;;;7.40;2.05;;;26.50;31.70;;;;;;5054479;28;20052;-76
2021/06/01 10:22:49;;;;;;;6.25;2.28;;;26.70;31.40;;;;;;5052899;28;20108;-69
2021/06/01 10:25:17;;;;;;;5.88;2.40;;;26.80;31.60;;;;;;5052546;28;20037;-76
2021/06/01 10:27:44;;;;;;;9.48;1.90;;;27.00;31.20;;;;;;5052578;28;20477;-74
2021/06/01 10:30:12;;;;;;;7.38;2.22;;;26.80;30.80;;;;;;5064731;28;20029;-69
2021/06/01 10:32:54;;;;;;;8.30;2.30;;;26.70;30.60;;;;;;5072329;28;20020;-69
2021/06/01 10:35:22;;;;;;;4.80;2.42;;;26.70;30.90;;;;;;5059849;28;20025;-68
2021/06/01 10:52:05;;;;;;;7.40;2.90;;;26.90;39.10;;;;;;5072347;28;20102;-70
2021/06/01 10:54:44;;;;;;;7.72;2.65;;;27.10;39.40;;;;;;5076428;28;20024;-68
2021/06/01 10:57:15;;;;;;;4.85;2.13;;;27.10;39.20;;;;;;5076069;28;20020;-72
2021/06/01 10:59:48;;;;;;;10.13;2.35;;;27.10;38.90;;;;;;5053434;28;20385;-70
2021/06/01 11:02:15;;;;;;;9.80;2.63;;;27.10;37.40;;;;;;5056264;28;20438;-70
2021/06/01 11:05:14;;;;;;;9.00;2.40;;;27.30;37.10;;;;;;5038003;28;20064;-68
2021/06/01 11:07:52;;;;;;;6.95;3.28;;;27.30;36.40;;;;;;5052601;28;20036;-69
2021/06/01 11:10:44;;;;;;;7.88;2.45;;;27.40;37.30;;;;;;5074170;28;20091;-72
2021/06/01 11:13:30;;;;;;;9.48;2.50;;;27.40;37.90;;;;;;5056635;28;20021;-68
2021/06/01 11:16:00;;;;;;;4.88;2.22;;;27.40;38.40;;;;;;5041941;28;20101;-70
2021/06/01 11:18:41;;;;;;;5.35;2.20;;;27.40;37.10;;;;;;5062629;28;20127;-70
2021/06/01 11:21:21;;;;;;;7.50;2.80;;;27.40;37.10;;;;;;5072125;28;20076;-71
2021/06/01 11:25:08;;;;;;;14.80;3.10;;;27.40;36.60;;;;;;5075927;28;20507;-70
2021/06/01 11:35:32;;;;;;;8.40;3.28;;;27.60;38.50;;;;;;5015176;28;20050;-77
2021/06/01 11:38:06;;;;;;;13.73;3.65;;;27.80;38.40;;;;;;5032517;28;20037;-76
2021/06/01 11:43:17;;;;;;;10.27;3.10;;;27.90;39.90;;;;;;5056236;28;20041;-74
2021/06/01 11:46:05;;;;;;;9.95;2.92;;;27.90;39.80;;;;;;5057884;28;20037;-70
2021/06/01 11:51:24;;;;;;;10.98;3.72;;;28.00;38.80;;;;;;5068340;28;20032;-74
2021/06/01 11:53:53;;;;;;;8.10;2.85;;;28.10;40.30;;;;;;5075825;28;20077;-72
2021/06/01 12:02:26;;;;;;;15.55;3.15;;;28.30;41.80;;;;;;5057414;28;20032;-72
2021/06/01 12:18:37;;;;;;;8.90;3.65;;;28.10;43.70;;;;;;5067051;28;20036;-72
2021/06/01 12:21:17;;;;;;;10.07;2.80;;;28.30;43.20;;;;;;5076208;28;20113;-73
2021/06/01 12:24:06;;;;;;;8.52;3.17;;;28.30;42.90;;;;;;5075150;28;20041;-72
2021/06/01 12:27:23;;;;;;;6.22;2.83;;;28.40;44.00;;;;;;5074889;28;20020;-73
2021/06/01 12:32:30;;;;;;;4.28;2.65;;;28.30;43.20;;;;;;5064741;28;20139;-70
2021/06/01 13:08:53;;;;;;;25.10;5.22;;;28.00;43.90;;;;;;5055500;28;20489;-74
2021/06/01 13:14:53;;;;;;;7.82;2.70;;;28.20;43.00;;;;;;5065171;28;20029;-71
2021/06/01 13:19:44;;;;;;;8.45;2.70;;;28.30;43.30;;;;;;5066346;28;20133;-69
2021/06/01 13:39:34;;;;;;;6.38;2.67;;;27.80;41.60;;;;;;5042293;28;20586;-74
2021/06/01 13:47:13;;;;;;;9.77;2.65;;;28.00;42.60;;;;;;5069864;28;20055;-71
2021/06/01 13:49:49;;;;;;;9.13;2.50;;;28.10;42.00;;;;;;5042361;28;20036;-72
2021/06/01 14:00:16;;;;;;;4.65;2.33;;;28.00;41.30;;;;;;5072945;28;20027;-69
2021/06/01 15:29:42;;;;;;;6.47;2.50;;;28.10;42.80;;;;;;5062008;28;20051;-73
2021/06/01 16:21:28;;;;;;;12.23;3.00;;;27.80;42.50;;;;;;5054920;28;20055;-72
2021/06/01 17:05:28;;;;;;;13.27;4.03;;;27.20;43.30;;;;;;5060868;28;20090;-72
2021/06/01 17:11:06;;;;;;;13.23;3.20;;;27.20;44.20;;;;;;5073678;28;20028;-73
2021/06/01 17:13:36;;;;;;;6.75;3.83;;;27.00;44.40;;;;;;5073563;28;20099;-72
2021/06/01 17:16:02;;;;;;;7.90;4.28;;;26.80;44.70;;;;;;5041977;28;20382;-72
2021/06/01 17:22:09;;;;;;;8.95;4.57;;;26.80;44.90;;;;;;5053479;28;20412;-71
2021/06/01 17:24:24;;;;;;;8.32;4.10;;;26.80;44.50;;;;;;5042913;28;20083;-70
2021/06/01 17:35:00;;;;;;;8.52;4.38;;;26.70;44.90;;;;;;5073237;28;20037;-69
2021/06/01 17:37:26;;;;;;;8.10;3.85;;;26.70;44.90;;;;;;5053561;28;20024;-72
2021/06/01 17:39:53;;;;;;;9.32;3.70;;;26.70;44.60;;;;;;5060232;28;20036;-73
2021/06/01 17:42:21;;;;;;;7.15;3.97;;;26.60;45.10;;;;;;5055221;28;20025;-70
2021/06/01 17:44:48;;;;;;;8.85;4.35;;;26.50;44.80;;;;;;5061872;28;20075;-71
2021/06/01 17:47:20;;;;;;;9.90;3.90;;;26.60;44.60;;;;;;5083903;28;20025;-68
2021/06/01 17:49:49;;;;;;;7.38;3.33;;;26.70;44.50;;;;;;5079082;28;20496;-72
2021/06/01 17:52:21;;;;;;;8.43;3.45;;;26.60;43.90;;;;;;5073082;28;20366;-70
2021/06/01 17:54:51;;;;;;;6.78;3.05;;;26.60;44.00;;;;;;5064783;28;20017;-70
2021/06/01 17:57:18;;;;;;;11.70;3.10;;;26.60;43.70;;;;;;5053480;28;20024;-75
2021/06/01 17:59:44;;;;;;;8.98;3.42;;;26.60;43.40;;;;;;5035875;28;20033;-73
2021/06/01 18:02:12;;;;;;;9.20;2.88;;;26.60;42.90;;;;;;5054208;28;20107;-75
2021/06/01 18:04:39;;;;;;;8.40;3.20;;;26.60;43.10;;;;;;5035543;28;20061;-71
2021/06/01 18:07:10;;;;;;;7.07;3.10;;;26.60;44.60;;;;;;5060818;28;20034;-71
2021/06/01 18:51:18;;;;;;;;;;;25.60;44.20;;;;;;5063377;28;20029;-73
2021/06/01 19:24:33;;;;;;;14.30;6.15;;;25.20;44.60;;;;;;5067714;28;20036;-73
2021/06/01 19:52:13;;;;;;;12.85;4.32;;;24.90;45.00;;;;;;5056721;28;20055;-74
2021/06/01 19:54:41;;;;;;;13.15;4.07;;;24.90;45.20;;;;;;5063819;28;20056;-74
2021/06/01 19:57:07;;;;;;;10.40;3.72;;;24.80;45.00;;;;;;5075574;28;20031;-75
2021/06/01 19:59:36;;;;;;;9.55;3.28;;;24.80;44.80;;;;;;5075496;28;20473;-75
2021/06/01 20:02:02;;;;;;;10.23;3.33;;;24.60;45.10;;;;;;5073083;28;20051;-75
2021/06/01 20:04:29;;;;;;;7.15;3.53;;;24.50;45.30;;;;;;5055181;28;20064;-75
2021/06/01 20:06:55;;;;;;;10.23;3.67;;;24.40;45.60;;;;;;5055220;28;20017;-75